createdAt,value
2023-06-07T00:00:19.991Z,5.28
2023-06-07T00:05:15.698Z,5.25
2023-06-07T00:07:43.878Z,4.60
2023-06-07T00:10:13.598Z,5.60
2023-06-07T00:12:42.916Z,4.20
2023-06-07T00:15:11.210Z,4.45
2023-06-07T00:17:41.875Z,4.72
2023-06-07T00:20:11.072Z,4.60
2023-06-07T00:22:39.784Z,5.30
2023-06-07T00:25:08.273Z,4.00
2023-06-07T00:27:36.141Z,5.05
2023-06-07T00:30:06.386Z,6.70
2023-06-07T00:32:34.233Z,4.90
2023-06-07T00:35:01.787Z,4.10
2023-06-07T00:37:29.280Z,4.72
2023-06-07T00:39:56.825Z,5.05
2023-06-07T00:42:24.373Z,4.43
2023-06-07T00:44:52.019Z,5.65
2023-06-07T00:47:20.905Z,6.05
2023-06-07T00:49:49.965Z,5.85
2023-06-07T00:52:18.721Z,5.75
2023-06-07T00:54:46.709Z,4.35
2023-06-07T00:57:16.742Z,5.65
2023-06-07T00:59:45.057Z,7.22
2023-06-07T01:02:16.047Z,6.70
2023-06-07T01:04:45.448Z,6.25
2023-06-07T01:07:13.518Z,5.60
2023-06-07T01:09:41.265Z,6.78
2023-06-07T01:12:15.724Z,6.75
2023-06-07T01:14:44.627Z,5.97
2023-06-07T01:17:13.840Z,7.22
2023-06-07T01:19:43.244Z,5.97
2023-06-07T01:22:15.189Z,5.60
2023-06-07T01:24:44.156Z,5.68
2023-06-07T01:27:12.242Z,6.05
2023-06-07T01:29:40.265Z,5.85
2023-06-07T01:32:10.477Z,7.88
2023-06-07T01:34:38.736Z,6.78
2023-06-07T01:37:07.104Z,6.00
2023-06-07T01:39:35.474Z,5.78
2023-06-07T01:42:05.892Z,6.03
2023-06-07T01:44:33.758Z,6.05
2023-06-07T01:47:01.459Z,5.53
2023-06-07T01:49:29.014Z,6.30
2023-06-07T01:51:56.699Z,5.72
2023-06-07T01:54:24.675Z,7.15
2023-06-07T01:57:05.370Z,5.28
2023-06-07T01:59:43.878Z,6.15
2023-06-07T02:02:19.176Z,5.60
2023-06-07T02:04:49.811Z,6.45
2023-06-07T02:07:24.723Z,5.28
2023-06-07T02:09:53.232Z,5.72
2023-06-07T02:12:22.255Z,7.32
2023-06-07T02:14:53.445Z,6.88
2023-06-07T02:17:21.505Z,7.70
2023-06-07T02:19:49.331Z,5.05
2023-06-07T02:22:17.025Z,5.43
2023-06-07T02:24:45.410Z,5.63
2023-06-07T02:27:13.993Z,6.82
2023-06-07T02:29:41.514Z,5.03
2023-06-07T02:32:10.917Z,6.03
2023-06-07T02:34:40.461Z,5.93
2023-06-07T02:37:07.970Z,6.30
2023-06-07T02:39:35.501Z,6.32
2023-06-07T02:42:03.089Z,7.10
2023-06-07T02:44:30.558Z,5.88
2023-06-07T02:46:58.378Z,8.32
2023-06-07T02:49:27.405Z,5.28
2023-06-07T02:51:55.076Z,5.75
2023-06-07T02:54:22.636Z,6.38
2023-06-07T02:56:50.107Z,5.78
2023-06-07T02:59:17.625Z,6.10
2023-06-07T03:01:45.100Z,6.90
2023-06-07T03:04:12.608Z,6.15
2023-06-07T03:06:42.304Z,6.00
2023-06-07T03:09:10.193Z,6.30
2023-06-07T03:11:37.658Z,6.50
2023-06-07T03:14:05.149Z,5.18
2023-06-07T03:16:33.202Z,5.90
2023-06-07T03:19:00.771Z,5.20
2023-06-07T03:21:28.444Z,5.38
2023-06-07T03:23:57.402Z,5.13
2023-06-07T03:26:25.037Z,7.00
2023-06-07T03:28:53.438Z,5.32
2023-06-07T03:31:21.120Z,5.40
2023-06-07T03:33:48.757Z,5.63
2023-06-07T03:36:21.845Z,5.25
2023-06-07T03:38:49.608Z,5.72
2023-06-07T03:41:18.464Z,5.95
2023-06-07T03:43:45.931Z,5.05
2023-06-07T03:46:13.485Z,5.20
2023-06-07T03:48:41.088Z,6.78
2023-06-07T03:51:08.693Z,5.50
2023-06-07T03:53:36.215Z,5.32
2023-06-07T03:56:04.289Z,9.18
2023-06-07T03:58:33.491Z,5.78
2023-06-07T04:01:01.092Z,6.00
2023-06-07T04:03:29.362Z,6.43
2023-06-07T04:05:56.970Z,7.20
2023-06-07T04:08:24.844Z,6.43
2023-06-07T04:10:53.796Z,6.95
2023-06-07T04:13:21.387Z,6.22
2023-06-07T04:15:50.441Z,6.40
2023-06-07T04:18:17.968Z,6.13
2023-06-07T04:20:45.488Z,6.55
2023-06-07T04:23:13.200Z,6.82
2023-06-07T04:25:40.900Z,6.32
2023-06-07T04:28:11.407Z,6.80
2023-06-07T04:30:42.206Z,7.22
2023-06-07T04:33:14.106Z,7.55
2023-06-07T04:35:43.793Z,5.13
2023-06-07T04:38:12.897Z,7.25
2023-06-07T04:40:42.258Z,6.22
2023-06-07T04:43:12.138Z,7.28
2023-06-07T04:45:42.476Z,6.43
2023-06-07T04:48:12.717Z,8.25
2023-06-07T04:50:42.269Z,9.20
2023-06-07T04:53:11.968Z,9.18
2023-06-07T04:55:42.722Z,10.20
2023-06-07T04:58:10.875Z,11.10
2023-06-07T05:00:40.157Z,14.60
2023-06-07T05:03:09.579Z,11.10
2023-06-07T05:05:39.142Z,12.10
2023-06-07T05:08:06.845Z,8.40
2023-06-07T05:10:34.496Z,9.40
2023-06-07T05:13:02.132Z,11.07
2023-06-07T05:15:29.667Z,11.52
2023-06-07T05:17:57.247Z,10.02
2023-06-07T05:20:26.097Z,13.20
2023-06-07T05:22:58.197Z,11.52
2023-06-07T05:25:25.849Z,12.52
2023-06-07T05:28:08.223Z,11.85
2023-06-07T05:30:40.944Z,13.05
2023-06-07T05:35:36.167Z,10.07
2023-06-07T05:38:05.162Z,11.98
2023-06-07T05:40:32.682Z,12.63
2023-06-07T05:43:00.215Z,10.13
2023-06-07T05:45:27.702Z,10.35
2023-06-07T05:47:55.377Z,10.32
2023-06-07T05:50:24.982Z,9.18
2023-06-07T05:52:57.392Z,10.55
2023-06-07T05:55:28.059Z,14.07
2023-06-07T05:57:58.110Z,12.05
2023-06-07T06:00:25.855Z,11.35
2023-06-07T06:02:54.109Z,10.20
2023-06-07T06:05:24.588Z,10.32
2023-06-07T06:07:52.621Z,13.93
2023-06-07T06:10:20.125Z,12.13
2023-06-07T06:12:49.060Z,12.70
2023-06-07T06:15:16.553Z,13.15
2023-06-07T06:17:44.123Z,13.23
2023-06-07T06:20:13.282Z,13.18
2023-06-07T06:22:41.011Z,16.73
2023-06-07T06:25:09.932Z,13.23
2023-06-07T06:27:37.464Z,12.93
2023-06-07T06:30:08.082Z,12.40
2023-06-07T06:32:36.119Z,11.55
2023-06-07T06:35:04.218Z,14.02
2023-06-07T06:37:31.810Z,14.43
2023-06-07T06:39:59.306Z,11.73
2023-06-07T06:42:26.975Z,11.98
2023-06-07T06:44:54.448Z,13.95
2023-06-07T06:47:23.622Z,11.35
2023-06-07T06:49:52.702Z,10.18
2023-06-07T06:52:20.354Z,11.30
2023-06-07T06:54:47.842Z,11.40
2023-06-07T06:57:15.483Z,11.50
2023-06-07T06:59:43.015Z,11.38
2023-06-07T07:02:11.824Z,12.15
2023-06-07T07:04:40.957Z,9.95
2023-06-07T07:07:08.533Z,10.50
2023-06-07T07:09:36.322Z,12.13
2023-06-07T07:12:04.271Z,12.13
2023-06-07T07:14:31.738Z,12.50
2023-06-07T07:16:59.374Z,11.30
2023-06-07T07:19:27.010Z,9.95
2023-06-07T07:21:55.962Z,10.68
2023-06-07T07:24:23.508Z,9.32
2023-06-07T07:26:51.255Z,8.13
2023-06-07T07:29:18.794Z,8.73
2023-06-07T07:31:46.363Z,10.45
2023-06-07T07:34:15.264Z,11.23
2023-06-07T07:36:45.019Z,9.57
2023-06-07T07:39:14.214Z,11.40
2023-06-07T07:41:42.294Z,10.82
2023-06-07T07:46:37.564Z,10.57
2023-06-07T07:49:05.121Z,11.02
2023-06-07T07:51:32.749Z,10.43
2023-06-07T07:54:01.248Z,10.73
2023-06-07T07:56:30.089Z,8.27
2023-06-07T07:58:57.665Z,8.35
2023-06-07T08:01:25.187Z,8.13
2023-06-07T08:03:53.095Z,6.82
2023-06-07T08:08:48.803Z,8.35
2023-06-07T08:11:16.377Z,7.97
2023-06-07T08:13:45.516Z,6.95
2023-06-07T08:16:13.578Z,7.93
2023-06-07T08:21:08.553Z,7.28
2023-06-07T08:23:37.501Z,7.60
2023-06-07T08:26:05.197Z,6.72
2023-06-07T08:28:32.752Z,8.88
2023-06-07T08:31:04.799Z,7.55
2023-06-07T08:33:32.363Z,9.35
2023-06-07T08:35:59.840Z,7.80
2023-06-07T08:38:27.421Z,8.20
2023-06-07T08:40:55.982Z,6.22
2023-06-07T08:43:23.728Z,8.30
2023-06-07T08:45:51.828Z,8.45
2023-06-07T08:50:55.284Z,4.57
2023-06-07T08:53:29.141Z,5.25
2023-06-07T08:55:59.350Z,5.15
2023-06-07T08:58:28.818Z,7.38
2023-06-07T09:01:00.616Z,6.57
2023-06-07T09:03:29.679Z,6.63
2023-06-07T09:08:22.491Z,7.00
2023-06-07T09:10:50.075Z,8.00
2023-06-07T09:13:20.989Z,7.00
2023-06-07T09:15:50.460Z,6.28
2023-06-07T09:18:18.339Z,6.25
2023-06-07T09:20:47.390Z,5.97
2023-06-07T09:23:16.013Z,5.80
2023-06-07T09:25:45.580Z,5.93
2023-06-07T09:28:14.242Z,6.72
2023-06-07T09:30:55.698Z,5.47
2023-06-07T09:33:30.843Z,6.63
2023-06-07T09:36:07.762Z,7.20
2023-06-07T09:38:35.506Z,6.30
2023-06-07T09:41:06.242Z,5.72
2023-06-07T09:43:44.021Z,6.90
2023-06-07T09:46:12.019Z,5.93
2023-06-07T09:48:47.610Z,6.35
2023-06-07T09:51:17.119Z,5.97
2023-06-07T09:53:52.457Z,6.25
2023-06-07T09:56:21.209Z,5.28
2023-06-07T09:58:50.593Z,5.65
2023-06-07T10:01:33.827Z,5.55
2023-06-07T10:04:03.592Z,6.50
2023-06-07T10:06:39.611Z,5.05
2023-06-07T10:09:08.789Z,5.07
2023-06-07T10:11:38.677Z,6.90
2023-06-07T10:14:08.612Z,5.82
2023-06-07T10:16:38.342Z,7.47
2023-06-07T10:19:13.556Z,5.47
2023-06-07T10:21:46.581Z,6.78
2023-06-07T10:24:20.269Z,5.63
2023-06-07T10:26:54.734Z,6.35
2023-06-07T10:29:30.751Z,7.38
2023-06-07T10:32:07.742Z,6.15
2023-06-07T10:34:37.300Z,6.45
2023-06-07T10:37:08.292Z,5.53
2023-06-07T10:39:36.490Z,6.45
2023-06-07T10:42:04.518Z,5.78
2023-06-07T10:44:32.676Z,5.78
2023-06-07T10:47:25.915Z,6.45
2023-06-07T10:49:54.685Z,5.93
2023-06-07T10:52:24.055Z,5.80
2023-06-07T10:54:52.911Z,5.97
2023-06-07T10:57:33.853Z,5.30
2023-06-07T11:00:31.170Z,5.88
2023-06-07T11:03:36.663Z,6.78
2023-06-07T11:06:06.506Z,7.78
2023-06-07T11:08:37.680Z,4.55
2023-06-07T11:11:27.140Z,5.63
2023-06-07T11:14:14.212Z,5.03
2023-06-07T11:16:42.598Z,5.25
2023-06-07T11:19:14.147Z,5.35
2023-06-07T11:22:06.329Z,6.18
2023-06-07T11:24:37.863Z,4.43
2023-06-07T11:27:11.785Z,4.63
2023-06-07T11:29:40.718Z,5.47
2023-06-07T11:32:11.115Z,5.47
2023-06-07T11:34:38.927Z,5.00
2023-06-07T11:37:17.717Z,4.03
2023-06-07T11:39:47.259Z,4.90
2023-06-07T11:42:14.860Z,4.68
2023-06-07T11:44:43.250Z,6.82
2023-06-07T11:47:11.193Z,4.03
2023-06-07T11:52:10.487Z,6.68
2023-06-07T11:54:44.018Z,5.45
2023-06-07T11:57:12.965Z,6.13
2023-06-07T11:59:42.041Z,6.35
2023-06-07T12:02:10.514Z,5.10
2023-06-07T12:04:38.340Z,5.30
2023-06-07T12:09:51.376Z,4.60
2023-06-07T12:12:20.443Z,5.07
2023-06-07T12:14:52.404Z,8.18
2023-06-07T12:17:20.547Z,4.28
2023-06-07T12:19:48.108Z,4.40
2023-06-07T12:22:15.893Z,4.10
2023-06-07T12:24:43.503Z,6.97
2023-06-07T12:27:13.995Z,4.40
2023-06-07T12:29:43.881Z,4.38
2023-06-07T12:32:12.688Z,4.55
2023-06-07T12:34:45.392Z,4.38
2023-06-07T12:37:13.952Z,6.28
2023-06-07T12:39:41.782Z,6.68
2023-06-07T12:44:37.197Z,3.75
2023-06-07T12:47:06.603Z,4.20
2023-06-07T12:49:34.269Z,3.75
2023-06-07T12:52:03.729Z,5.13
2023-06-07T12:54:31.294Z,4.00
2023-06-07T12:56:58.945Z,3.95
2023-06-07T12:59:26.565Z,4.13
2023-06-07T13:01:54.286Z,4.35
2023-06-07T13:04:24.193Z,3.85
2023-06-07T13:06:51.826Z,5.72
2023-06-07T13:09:20.001Z,3.95
2023-06-07T13:11:47.927Z,4.95
2023-06-07T13:14:17.560Z,4.53
2023-06-07T13:16:45.328Z,4.00
2023-06-07T13:21:43.220Z,3.80
2023-06-07T13:24:10.920Z,5.38
2023-06-07T13:26:38.511Z,4.82
2023-06-07T13:29:06.082Z,4.45
2023-06-07T13:31:33.638Z,4.00
2023-06-07T13:34:03.022Z,4.13
2023-06-07T13:36:30.518Z,3.70
2023-06-07T13:38:59.914Z,5.05
2023-06-07T13:41:30.396Z,4.72
2023-06-07T13:44:15.577Z,3.85
2023-06-07T13:46:45.509Z,3.80
2023-06-07T13:49:13.882Z,4.13
2023-06-07T13:51:41.589Z,4.00
2023-06-07T13:54:10.537Z,3.72
2023-06-07T13:56:38.168Z,3.97
2023-06-07T13:59:05.748Z,4.13
2023-06-07T14:01:33.595Z,6.05
2023-06-07T14:04:03.766Z,3.97
2023-06-07T14:06:31.466Z,6.13
2023-06-07T14:08:59.033Z,4.15
2023-06-07T14:11:28.290Z,5.82
2023-06-07T14:13:55.877Z,5.70
2023-06-07T14:16:24.918Z,4.65
2023-06-07T14:18:53.997Z,5.13
2023-06-07T14:21:21.554Z,3.97
2023-06-07T14:23:49.185Z,3.85
2023-06-07T14:26:16.887Z,4.07
2023-06-07T14:28:45.806Z,4.30
2023-06-07T14:31:14.083Z,3.95
2023-06-07T14:33:41.684Z,6.13
2023-06-07T14:36:09.186Z,4.22
2023-06-07T14:38:37.772Z,4.38
2023-06-07T14:41:05.435Z,3.65
2023-06-07T14:43:32.952Z,4.30
2023-06-07T14:46:01.879Z,3.17
2023-06-07T14:48:29.399Z,4.07
2023-06-07T14:50:57.054Z,3.80
2023-06-07T14:53:24.626Z,4.93
2023-06-07T14:55:52.224Z,6.55
2023-06-07T14:58:19.727Z,3.90
2023-06-07T15:00:47.225Z,3.65
2023-06-07T15:03:17.127Z,3.50
2023-06-07T15:05:44.771Z,3.70
2023-06-07T15:08:12.259Z,4.78
2023-06-07T15:10:39.722Z,3.92
2023-06-07T15:13:07.225Z,3.55
2023-06-07T15:15:34.878Z,3.53
2023-06-07T15:18:02.434Z,3.88
2023-06-07T15:20:31.282Z,4.20
2023-06-07T15:22:58.811Z,4.13
2023-06-07T15:25:26.674Z,3.80
2023-06-07T15:27:54.165Z,4.50
2023-06-07T15:30:21.689Z,4.93
2023-06-07T15:32:49.205Z,3.95
2023-06-07T15:35:16.758Z,4.00
2023-06-07T15:37:45.746Z,4.70
2023-06-07T15:40:13.478Z,3.45
2023-06-07T15:45:09.172Z,4.15
2023-06-07T15:47:36.954Z,4.38
2023-06-07T15:52:32.453Z,4.45
2023-06-07T15:55:01.287Z,3.75
2023-06-07T15:57:28.883Z,4.25
2023-06-07T15:59:56.401Z,5.30
2023-06-07T16:02:23.976Z,3.67
2023-06-07T16:04:51.497Z,4.03
2023-06-07T16:07:19.054Z,3.45
2023-06-07T16:09:46.544Z,3.85
2023-06-07T16:12:15.825Z,3.78
2023-06-07T16:14:44.192Z,3.58
2023-06-07T16:17:11.766Z,4.68
2023-06-07T16:19:39.599Z,4.85
2023-06-07T16:24:36.563Z,3.92
2023-06-07T16:27:04.322Z,3.47
2023-06-07T16:32:00.523Z,4.28
2023-06-07T16:34:28.024Z,4.78
2023-06-07T16:36:55.554Z,4.57
2023-06-07T16:39:23.105Z,5.35
2023-06-07T16:41:50.597Z,6.95
2023-06-07T16:44:19.132Z,4.85
2023-06-07T16:46:48.571Z,5.80
2023-06-07T16:49:16.287Z,4.93
2023-06-07T16:51:43.833Z,7.13
2023-06-07T16:54:12.147Z,4.72
2023-06-07T16:56:39.672Z,5.78
2023-06-07T16:59:07.597Z,4.35
2023-06-07T17:01:36.526Z,5.88
2023-06-07T17:04:05.903Z,6.30
2023-06-07T17:06:33.525Z,5.72
2023-06-07T17:09:01.018Z,6.43
2023-06-07T17:11:28.619Z,6.13
2023-06-07T17:13:56.437Z,6.68
2023-06-07T17:18:51.616Z,7.47
2023-06-07T17:21:20.706Z,6.32
2023-06-07T17:23:48.383Z,4.75
2023-06-07T17:26:15.974Z,7.35
2023-06-07T17:28:43.512Z,5.68
2023-06-07T17:31:11.779Z,4.95
2023-06-07T17:33:41.706Z,4.65
2023-06-07T17:36:09.941Z,7.63
2023-06-07T17:38:38.897Z,4.47
2023-06-07T17:41:06.516Z,5.10
2023-06-07T17:43:34.101Z,4.65
2023-06-07T17:46:01.675Z,5.43
2023-06-07T17:48:29.288Z,4.75
2023-06-07T17:50:56.875Z,4.97
2023-06-07T17:53:24.426Z,5.70
2023-06-07T17:55:53.245Z,4.70
2023-06-07T17:58:20.852Z,5.22
2023-06-07T18:00:48.352Z,5.47
2023-06-07T18:03:19.938Z,4.88
2023-06-07T18:05:47.808Z,4.72
2023-06-07T18:08:15.733Z,4.45
2023-06-07T18:10:43.273Z,4.18
2023-06-07T18:13:12.145Z,5.85
2023-06-07T18:15:39.680Z,6.57
2023-06-07T18:18:07.276Z,6.15
2023-06-07T18:20:34.856Z,6.38
2023-06-07T18:23:04.782Z,5.75
2023-06-07T18:25:32.809Z,6.47
2023-06-07T18:28:00.323Z,5.30
2023-06-07T18:30:29.399Z,5.72
2023-06-07T18:35:24.873Z,5.53
2023-06-07T18:37:52.376Z,5.43
2023-06-07T18:40:22.350Z,6.10
2023-06-07T18:42:49.980Z,6.03
2023-06-07T18:45:17.779Z,6.05
2023-06-07T18:47:46.978Z,6.78
2023-06-07T18:50:14.669Z,5.25
2023-06-07T18:52:42.207Z,6.47
2023-06-07T18:55:10.354Z,6.53
2023-06-07T18:57:38.393Z,6.35
2023-06-07T19:02:34.285Z,5.63
2023-06-07T19:07:30.996Z,6.30
2023-06-07T19:09:58.559Z,5.03
2023-06-07T19:12:28.962Z,8.90
2023-06-07T19:14:56.988Z,6.13
2023-06-07T19:17:24.792Z,5.63
2023-06-07T19:22:21.076Z,6.72
2023-06-07T19:24:48.622Z,6.45
2023-06-07T19:27:16.707Z,6.25
2023-06-07T19:29:44.245Z,7.10
2023-06-07T19:32:14.936Z,7.03
2023-06-07T19:34:42.438Z,6.03
2023-06-07T19:37:09.930Z,6.28
2023-06-07T19:39:39.092Z,5.90
2023-06-07T19:42:09.175Z,8.23
2023-06-07T19:44:38.591Z,5.30
2023-06-07T19:47:06.758Z,6.75
2023-06-07T19:49:34.376Z,8.75
2023-06-07T19:52:03.726Z,5.38
2023-06-07T19:54:31.818Z,5.80
2023-06-07T19:57:00.711Z,7.38
2023-06-07T19:59:28.308Z,7.13
2023-06-07T20:01:56.971Z,6.93
2023-06-07T20:04:24.522Z,7.38
2023-06-07T20:06:52.035Z,5.70
2023-06-07T20:09:19.519Z,7.72
2023-06-07T20:11:47.023Z,5.72
2023-06-07T20:14:17.174Z,6.28
2023-06-07T20:16:44.744Z,7.10
2023-06-07T20:19:12.266Z,7.18
2023-06-07T20:21:39.800Z,5.97
2023-06-07T20:24:07.473Z,6.63
2023-06-07T20:26:38.005Z,5.68
2023-06-07T20:29:05.695Z,7.05
2023-06-07T20:31:34.610Z,8.00
2023-06-07T20:34:02.191Z,5.22
2023-06-07T20:36:29.727Z,7.13
2023-06-07T20:38:57.284Z,7.85
2023-06-07T20:41:24.782Z,6.25
2023-06-07T20:43:52.259Z,6.07
2023-06-07T20:46:19.846Z,6.50
2023-06-07T20:48:48.726Z,5.70
2023-06-07T20:51:16.486Z,6.28
2023-06-07T20:53:44.167Z,7.22
2023-06-07T20:56:11.796Z,6.85
2023-06-07T20:58:39.300Z,7.55
2023-06-07T21:01:06.867Z,7.20
2023-06-07T21:03:34.697Z,6.68
2023-06-07T21:08:31.073Z,6.90
2023-06-07T21:10:58.652Z,6.70
2023-06-07T21:13:26.366Z,7.35
2023-06-07T21:15:53.925Z,6.13
2023-06-07T21:18:21.456Z,6.75
2023-06-07T21:20:48.987Z,7.05
2023-06-07T21:23:17.893Z,6.60
2023-06-07T21:25:45.515Z,8.25
2023-06-07T21:28:13.061Z,6.55
2023-06-07T21:30:40.686Z,6.70
2023-06-07T21:33:08.324Z,6.78
2023-06-07T21:35:35.869Z,6.95
2023-06-07T21:38:03.455Z,6.63
2023-06-07T21:40:32.447Z,6.68
2023-06-07T21:42:59.974Z,7.40
2023-06-07T21:45:28.156Z,7.15
2023-06-07T21:47:55.895Z,6.15
2023-06-07T21:50:23.486Z,7.18
2023-06-07T21:52:51.859Z,6.68
2023-06-07T21:55:19.483Z,7.07
2023-06-07T21:57:48.366Z,8.65
2023-06-07T22:00:16.553Z,7.53
2023-06-07T22:02:44.259Z,8.25
2023-06-07T22:05:11.893Z,9.27
2023-06-07T22:07:41.555Z,8.35
2023-06-07T22:10:10.022Z,8.02
2023-06-07T22:12:38.256Z,7.22
2023-06-07T22:15:08.979Z,8.35
2023-06-07T22:17:37.591Z,7.88
2023-06-07T22:20:07.242Z,7.70
2023-06-07T22:22:35.402Z,7.15
2023-06-07T22:25:03.034Z,8.32
2023-06-07T22:27:33.892Z,7.45
2023-06-07T22:30:01.424Z,7.60
2023-06-07T22:32:30.748Z,6.72
2023-06-07T22:35:05.094Z,8.30
2023-06-07T22:37:38.003Z,7.78
2023-06-07T22:40:07.541Z,7.07
2023-06-07T22:42:35.713Z,9.18
2023-06-07T22:45:03.780Z,6.28
2023-06-07T22:47:33.342Z,7.10
2023-06-07T22:50:01.753Z,7.90
2023-06-07T22:52:34.225Z,7.03
2023-06-07T22:55:01.906Z,6.47
2023-06-07T22:57:29.546Z,7.45
2023-06-07T22:59:57.186Z,7.72
2023-06-07T23:02:24.719Z,7.72
2023-06-07T23:04:53.634Z,6.85
2023-06-07T23:07:21.921Z,7.90
2023-06-07T23:09:49.939Z,6.82
2023-06-07T23:14:49.487Z,7.97
2023-06-07T23:17:17.665Z,6.68
2023-06-07T23:19:46.552Z,7.18
2023-06-07T23:22:17.967Z,8.60
2023-06-07T23:24:49.141Z,6.65
2023-06-07T23:27:16.845Z,7.10
2023-06-07T23:29:44.401Z,7.18
2023-06-07T23:32:12.267Z,6.35
2023-06-07T23:34:40.121Z,7.03
2023-06-07T23:37:07.692Z,7.45
2023-06-07T23:39:36.584Z,7.25
2023-06-07T23:42:04.563Z,7.82
2023-06-07T23:44:32.334Z,8.73
2023-06-07T23:47:00.561Z,7.65
2023-06-07T23:49:35.018Z,10.10
2023-06-07T23:52:02.773Z,7.60
2023-06-07T23:54:30.402Z,7.55
2023-06-07T23:56:59.281Z,7.85
2023-06-07T23:59:26.863Z,8.18
